sensor_id;sensor_type;location;lat;lon;timestamp;P1;durP1;ratioP1;P2;durP2;ratioP2
47053;SDS011;32811;52.382;5.270;2022-08-11T00:00:21;8.93;;;2.72;;
47053;SDS011;32811;52.382;5.270;2022-08-11T00:03:02;4.80;;;1.60;;
47053;SDS011;32811;52.382;5.270;2022-08-11T00:05:31;2.55;;;1.50;;
47053;SDS011;32811;52.382;5.270;2022-08-11T00:07:58;4.40;;;1.70;;
47053;SDS011;32811;52.382;5.270;2022-08-11T00:10:27;3.65;;;2.20;;
47053;SDS011;32811;52.382;5.270;2022-08-11T00:12:56;4.80;;;1.75;;
47053;SDS011;32811;52.382;5.270;2022-08-11T00:15:26;6.22;;;1.98;;
47053;SDS011;32811;52.382;5.270;2022-08-11T00:18:02;3.15;;;1.77;;
47053;SDS011;32811;52.382;5.270;2022-08-11T00:20:30;3.00;;;1.55;;
47053;SDS011;32811;52.382;5.270;2022-08-11T00:23:02;7.50;;;2.00;;
47053;SDS011;32811;52.382;5.270;2022-08-11T00:25:40;2.40;;;2.00;;
47053;SDS011;32811;52.382;5.270;2022-08-11T00:28:23;3.58;;;2.03;;
47053;SDS011;32811;52.382;5.270;2022-08-11T00:30:57;5.95;;;2.38;;
47053;SDS011;32811;52.382;5.270;2022-08-11T00:33:31;3.60;;;1.83;;
47053;SDS011;32811;52.382;5.270;2022-08-11T00:36:12;1.80;;;1.60;;
47053;SDS011;32811;52.382;5.270;2022-08-11T00:38:41;5.57;;;1.83;;
47053;SDS011;32811;52.382;5.270;2022-08-11T00:41:15;5.50;;;1.95;;
47053;SDS011;32811;52.382;5.270;2022-08-11T00:49:38;2.13;;;1.90;;
47053;SDS011;32811;52.382;5.270;2022-08-11T01:07:07;5.03;;;2.17;;
47053;SDS011;32811;52.382;5.270;2022-08-11T01:12:39;4.32;;;2.30;;
47053;SDS011;32811;52.382;5.270;2022-08-11T01:29:56;6.97;;;2.97;;
47053;SDS011;32811;52.382;5.270;2022-08-11T01:45:10;7.80;;;2.72;;
47053;SDS011;32811;52.382;5.270;2022-08-11T01:50:52;5.00;;;2.45;;
47053;SDS011;32811;52.382;5.270;2022-08-11T02:01:36;7.00;;;3.40;;
47053;SDS011;32811;52.382;5.270;2022-08-11T02:04:24;2.78;;;2.45;;
47053;SDS011;32811;52.382;5.270;2022-08-11T02:07:00;5.65;;;2.38;;
47053;SDS011;32811;52.382;5.270;2022-08-11T02:09:47;2.85;;;2.13;;
47053;SDS011;32811;52.382;5.270;2022-08-11T02:15:13;4.03;;;2.58;;
47053;SDS011;32811;52.382;5.270;2022-08-11T02:20:20;5.22;;;2.45;;
47053;SDS011;32811;52.382;5.270;2022-08-11T02:23:13;7.72;;;2.63;;
47053;SDS011;32811;52.382;5.270;2022-08-11T02:26:22;3.67;;;3.40;;
47053;SDS011;32811;52.382;5.270;2022-08-11T02:28:54;3.40;;;2.22;;
47053;SDS011;32811;52.382;5.270;2022-08-11T02:31:44;5.63;;;2.75;;
47053;SDS011;32811;52.382;5.270;2022-08-11T02:35:07;5.88;;;2.55;;
47053;SDS011;32811;52.382;5.270;2022-08-11T02:43:04;4.18;;;3.47;;
47053;SDS011;32811;52.382;5.270;2022-08-11T02:54:26;6.10;;;3.10;;
47053;SDS011;32811;52.382;5.270;2022-08-11T03:00:07;4.90;;;3.28;;
47053;SDS011;32811;52.382;5.270;2022-08-11T03:02:49;4.00;;;3.03;;
47053;SDS011;32811;52.382;5.270;2022-08-11T03:11:20;3.17;;;2.88;;
47053;SDS011;32811;52.382;5.270;2022-08-11T03:20:10;3.78;;;2.80;;
47053;SDS011;32811;52.382;5.270;2022-08-11T03:22:55;4.50;;;2.83;;
47053;SDS011;32811;52.382;5.270;2022-08-11T03:25:33;4.47;;;3.25;;
47053;SDS011;32811;52.382;5.270;2022-08-11T03:34:05;5.55;;;3.05;;
47053;SDS011;32811;52.382;5.270;2022-08-11T03:39:59;5.50;;;2.92;;
47053;SDS011;32811;52.382;5.270;2022-08-11T04:04:17;4.13;;;3.72;;
47053;SDS011;32811;52.382;5.270;2022-08-11T04:12:58;5.22;;;4.22;;
47053;SDS011;32811;52.382;5.270;2022-08-11T04:18:50;10.75;;;4.88;;
47053;SDS011;32811;52.382;5.270;2022-08-11T04:24:23;5.72;;;3.88;;
47053;SDS011;32811;52.382;5.270;2022-08-11T04:30:15;6.57;;;4.03;;
47053;SDS011;32811;52.382;5.270;2022-08-11T04:57:13;5.30;;;3.45;;
47053;SDS011;32811;52.382;5.270;2022-08-11T05:00:07;4.47;;;3.75;;
47053;SDS011;32811;52.382;5.270;2022-08-11T05:05:51;12.32;;;4.20;;
47053;SDS011;32811;52.382;5.270;2022-08-11T05:17:30;6.57;;;3.72;;
47053;SDS011;32811;52.382;5.270;2022-08-11T05:20:21;9.13;;;4.43;;
47053;SDS011;32811;52.382;5.270;2022-08-11T05:23:08;6.22;;;3.63;;
47053;SDS011;32811;52.382;5.270;2022-08-11T05:25:56;4.60;;;4.10;;
47053;SDS011;32811;52.382;5.270;2022-08-11T05:29:04;8.55;;;3.92;;
47053;SDS011;32811;52.382;5.270;2022-08-11T05:35:00;8.57;;;3.55;;
47053;SDS011;32811;52.382;5.270;2022-08-11T05:40:09;6.10;;;4.18;;
47053;SDS011;32811;52.382;5.270;2022-08-11T05:42:58;4.53;;;3.85;;
47053;SDS011;32811;52.382;5.270;2022-08-11T05:45:54;4.80;;;3.58;;
47053;SDS011;32811;52.382;5.270;2022-08-11T05:48:42;5.07;;;3.33;;
47053;SDS011;32811;52.382;5.270;2022-08-11T05:51:34;5.63;;;3.40;;
47053;SDS011;32811;52.382;5.270;2022-08-11T05:54:30;5.15;;;3.97;;
47053;SDS011;32811;52.382;5.270;2022-08-11T05:57:21;4.82;;;3.28;;
47053;SDS011;32811;52.382;5.270;2022-08-11T06:00:11;4.35;;;2.83;;
47053;SDS011;32811;52.382;5.270;2022-08-11T06:02:43;5.88;;;3.53;;
47053;SDS011;32811;52.382;5.270;2022-08-11T06:05:14;3.83;;;3.28;;
47053;SDS011;32811;52.382;5.270;2022-08-11T06:07:44;4.43;;;4.03;;
47053;SDS011;32811;52.382;5.270;2022-08-11T06:10:24;3.90;;;3.58;;
47053;SDS011;32811;52.382;5.270;2022-08-11T06:12:55;7.43;;;3.85;;
47053;SDS011;32811;52.382;5.270;2022-08-11T06:15:23;4.35;;;3.13;;
47053;SDS011;32811;52.382;5.270;2022-08-11T06:17:51;5.47;;;3.17;;
47053;SDS011;32811;52.382;5.270;2022-08-11T06:20:19;5.75;;;3.20;;
47053;SDS011;32811;52.382;5.270;2022-08-11T06:22:53;3.47;;;2.72;;
47053;SDS011;32811;52.382;5.270;2022-08-11T06:25:22;4.95;;;2.90;;
47053;SDS011;32811;52.382;5.270;2022-08-11T06:27:56;7.82;;;3.30;;
47053;SDS011;32811;52.382;5.270;2022-08-11T06:30:33;5.57;;;3.50;;
47053;SDS011;32811;52.382;5.270;2022-08-11T06:33:07;5.18;;;3.10;;
47053;SDS011;32811;52.382;5.270;2022-08-11T06:39:28;6.13;;;2.67;;
47053;SDS011;32811;52.382;5.270;2022-08-11T06:41:44;5.15;;;2.80;;
47053;SDS011;32811;52.382;5.270;2022-08-11T06:44:15;3.92;;;2.78;;
47053;SDS011;32811;52.382;5.270;2022-08-11T06:47:04;3.42;;;2.50;;
47053;SDS011;32811;52.382;5.270;2022-08-11T06:49:36;3.45;;;2.50;;
47053;SDS011;32811;52.382;5.270;2022-08-11T06:52:33;3.30;;;2.45;;
47053;SDS011;32811;52.382;5.270;2022-08-11T06:55:09;5.55;;;3.15;;
47053;SDS011;32811;52.382;5.270;2022-08-11T06:57:58;3.40;;;2.60;;
47053;SDS011;32811;52.382;5.270;2022-08-11T07:00:45;3.55;;;2.70;;
47053;SDS011;32811;52.382;5.270;2022-08-11T07:03:17;4.65;;;2.58;;
47053;SDS011;32811;52.382;5.270;2022-08-11T07:08:32;3.28;;;2.05;;
47053;SDS011;32811;52.382;5.270;2022-08-11T07:14:46;2.83;;;2.30;;
47053;SDS011;32811;52.382;5.270;2022-08-11T07:17:49;4.93;;;2.53;;
47053;SDS011;32811;52.382;5.270;2022-08-11T07:20:37;4.05;;;2.17;;
47053;SDS011;32811;52.382;5.270;2022-08-11T07:23:28;3.60;;;2.28;;
47053;SDS011;32811;52.382;5.270;2022-08-11T07:26:17;5.10;;;2.80;;
47053;SDS011;32811;52.382;5.270;2022-08-11T07:29:05;6.20;;;2.50;;
47053;SDS011;32811;52.382;5.270;2022-08-11T07:31:39;5.43;;;1.95;;
47053;SDS011;32811;52.382;5.270;2022-08-11T07:36:54;5.40;;;2.10;;
47053;SDS011;32811;52.382;5.270;2022-08-11T07:39:32;2.35;;;1.85;;
47053;SDS011;32811;52.382;5.270;2022-08-11T07:42:08;2.85;;;1.92;;
47053;SDS011;32811;52.382;5.270;2022-08-11T07:44:36;3.33;;;1.95;;
47053;SDS011;32811;52.382;5.270;2022-08-11T07:47:25;2.47;;;1.75;;
47053;SDS011;32811;52.382;5.270;2022-08-11T07:50:11;3.63;;;2.28;;
47053;SDS011;32811;52.382;5.270;2022-08-11T07:52:57;3.85;;;1.70;;
47053;SDS011;32811;52.382;5.270;2022-08-11T07:55:25;3.42;;;2.08;;
47053;SDS011;32811;52.382;5.270;2022-08-11T07:58:16;3.10;;;1.58;;
47053;SDS011;32811;52.382;5.270;2022-08-11T08:01:11;3.63;;;1.80;;
47053;SDS011;32811;52.382;5.270;2022-08-11T08:04:03;2.75;;;1.63;;
47053;SDS011;32811;52.382;5.270;2022-08-11T08:06:49;3.78;;;1.70;;
47053;SDS011;32811;52.382;5.270;2022-08-11T08:09:35;3.38;;;1.70;;
47053;SDS011;32811;52.382;5.270;2022-08-11T08:12:21;2.50;;;1.58;;
47053;SDS011;32811;52.382;5.270;2022-08-11T08:15:09;6.10;;;1.65;;
47053;SDS011;32811;52.382;5.270;2022-08-11T08:17:57;3.45;;;1.60;;
47053;SDS011;32811;52.382;5.270;2022-08-11T08:20:46;12.35;;;1.40;;
47053;SDS011;32811;52.382;5.270;2022-08-11T08:23:17;5.70;;;1.33;;
47053;SDS011;32811;52.382;5.270;2022-08-11T08:25:59;5.47;;;1.60;;
47053;SDS011;32811;52.382;5.270;2022-08-11T08:28:29;5.85;;;1.50;;
47053;SDS011;32811;52.382;5.270;2022-08-11T08:30:58;4.30;;;1.27;;
47053;SDS011;32811;52.382;5.270;2022-08-11T08:33:29;2.30;;;1.30;;
47053;SDS011;32811;52.382;5.270;2022-08-11T08:35:59;1.80;;;1.20;;
47053;SDS011;32811;52.382;5.270;2022-08-11T08:38:41;2.28;;;1.27;;
47053;SDS011;32811;52.382;5.270;2022-08-11T08:41:19;2.88;;;1.20;;
47053;SDS011;32811;52.382;5.270;2022-08-11T08:43:50;3.92;;;1.10;;
47053;SDS011;32811;52.382;5.270;2022-08-11T08:46:24;2.60;;;1.20;;
47053;SDS011;32811;52.382;5.270;2022-08-11T08:48:55;4.38;;;1.08;;
47053;SDS011;32811;52.382;5.270;2022-08-11T08:51:27;4.10;;;1.33;;
47053;SDS011;32811;52.382;5.270;2022-08-11T08:54:27;1.55;;;0.90;;
47053;SDS011;32811;52.382;5.270;2022-08-11T08:57:03;2.78;;;1.30;;
47053;SDS011;32811;52.382;5.270;2022-08-11T08:59:32;1.75;;;1.10;;
47053;SDS011;32811;52.382;5.270;2022-08-11T09:02:15;2.88;;;1.10;;
47053;SDS011;32811;52.382;5.270;2022-08-11T09:05:00;10.23;;;1.10;;
47053;SDS011;32811;52.382;5.270;2022-08-11T09:07:29;2.28;;;0.77;;
47053;SDS011;32811;52.382;5.270;2022-08-11T09:10:05;2.00;;;0.85;;
47053;SDS011;32811;52.382;5.270;2022-08-11T09:12:33;3.53;;;1.00;;
47053;SDS011;32811;52.382;5.270;2022-08-11T09:15:04;3.45;;;0.93;;
47053;SDS011;32811;52.382;5.270;2022-08-11T09:17:44;2.83;;;1.10;;
47053;SDS011;32811;52.382;5.270;2022-08-11T09:20:15;2.28;;;1.15;;
47053;SDS011;32811;52.382;5.270;2022-08-11T09:22:46;5.05;;;0.85;;
47053;SDS011;32811;52.382;5.270;2022-08-11T09:25:56;2.33;;;0.93;;
47053;SDS011;32811;52.382;5.270;2022-08-11T09:28:44;4.35;;;0.95;;
47053;SDS011;32811;52.382;5.270;2022-08-11T09:31:13;5.60;;;1.20;;
47053;SDS011;32811;52.382;5.270;2022-08-11T09:33:40;2.75;;;0.82;;
47053;SDS011;32811;52.382;5.270;2022-08-11T09:36:09;3.72;;;1.52;;
47053;SDS011;32811;52.382;5.270;2022-08-11T09:38:56;6.18;;;1.25;;
47053;SDS011;32811;52.382;5.270;2022-08-11T09:41:44;4.15;;;1.00;;
47053;SDS011;32811;52.382;5.270;2022-08-11T09:44:31;1.95;;;0.73;;
47053;SDS011;32811;52.382;5.270;2022-08-11T09:49:48;6.40;;;1.08;;
47053;SDS011;32811;52.382;5.270;2022-08-11T09:52:18;1.45;;;0.70;;
47053;SDS011;32811;52.382;5.270;2022-08-11T09:54:47;4.88;;;1.10;;
47053;SDS011;32811;52.382;5.270;2022-08-11T09:57:19;3.63;;;1.10;;
47053;SDS011;32811;52.382;5.270;2022-08-11T10:00:07;1.60;;;0.90;;
47053;SDS011;32811;52.382;5.270;2022-08-11T10:02:46;2.88;;;0.98;;
47053;SDS011;32811;52.382;5.270;2022-08-11T10:05:14;4.25;;;1.20;;
47053;SDS011;32811;52.382;5.270;2022-08-11T10:08:03;2.95;;;0.80;;
47053;SDS011;32811;52.382;5.270;2022-08-11T10:10:33;4.25;;;0.70;;
47053;SDS011;32811;52.382;5.270;2022-08-11T10:13:02;3.58;;;1.15;;
47053;SDS011;32811;52.382;5.270;2022-08-11T10:15:55;2.88;;;1.00;;
47053;SDS011;32811;52.382;5.270;2022-08-11T10:18:42;4.07;;;1.00;;
47053;SDS011;32811;52.382;5.270;2022-08-11T10:21:28;2.60;;;1.00;;
47053;SDS011;32811;52.382;5.270;2022-08-11T10:24:00;7.78;;;0.93;;
47053;SDS011;32811;52.382;5.270;2022-08-11T10:26:47;5.25;;;1.08;;
47053;SDS011;32811;52.382;5.270;2022-08-11T10:29:20;5.85;;;0.90;;
47053;SDS011;32811;52.382;5.270;2022-08-11T10:32:18;4.72;;;1.17;;
47053;SDS011;32811;52.382;5.270;2022-08-11T10:35:24;3.67;;;1.00;;
47053;SDS011;32811;52.382;5.270;2022-08-11T10:37:53;4.32;;;1.10;;
47053;SDS011;32811;52.382;5.270;2022-08-11T10:40:36;6.20;;;1.65;;
47053;SDS011;32811;52.382;5.270;2022-08-11T10:43:04;2.00;;;0.90;;
47053;SDS011;32811;52.382;5.270;2022-08-11T10:45:36;5.22;;;1.75;;
47053;SDS011;32811;52.382;5.270;2022-08-11T10:48:24;3.50;;;1.00;;
47053;SDS011;32811;52.382;5.270;2022-08-11T10:50:53;3.22;;;0.77;;
47053;SDS011;32811;52.382;5.270;2022-08-11T10:53:49;6.22;;;0.82;;
47053;SDS011;32811;52.382;5.270;2022-08-11T10:56:38;3.60;;;0.77;;
47053;SDS011;32811;52.382;5.270;2022-08-11T10:59:25;8.88;;;0.90;;
47053;SDS011;32811;52.382;5.270;2022-08-11T11:01:53;2.13;;;0.75;;
47053;SDS011;32811;52.382;5.270;2022-08-11T11:04:27;2.72;;;1.52;;
47053;SDS011;32811;52.382;5.270;2022-08-11T11:07:03;3.10;;;0.80;;
47053;SDS011;32811;52.382;5.270;2022-08-11T11:09:58;3.47;;;1.10;;
47053;SDS011;32811;52.382;5.270;2022-08-11T11:12:30;8.45;;;1.08;;
47053;SDS011;32811;52.382;5.270;2022-08-11T11:15:20;2.13;;;0.85;;
47053;SDS011;32811;52.382;5.270;2022-08-11T11:18:10;1.80;;;0.68;;
47053;SDS011;32811;52.382;5.270;2022-08-11T11:20:50;4.40;;;1.10;;
47053;SDS011;32811;52.382;5.270;2022-08-11T11:23:24;1.80;;;0.90;;
47053;SDS011;32811;52.382;5.270;2022-08-11T11:36:55;4.05;;;0.82;;
47053;SDS011;32811;52.382;5.270;2022-08-11T11:39:27;4.75;;;1.17;;
47053;SDS011;32811;52.382;5.270;2022-08-11T11:42:07;4.93;;;0.80;;
47053;SDS011;32811;52.382;5.270;2022-08-11T11:44:38;2.33;;;0.90;;
47053;SDS011;32811;52.382;5.270;2022-08-11T11:47:09;1.20;;;0.65;;
47053;SDS011;32811;52.382;5.270;2022-08-11T11:49:37;3.47;;;0.90;;
47053;SDS011;32811;52.382;5.270;2022-08-11T11:52:12;2.83;;;0.90;;
47053;SDS011;32811;52.382;5.270;2022-08-11T11:54:44;1.88;;;0.80;;
47053;SDS011;32811;52.382;5.270;2022-08-11T11:57:15;2.13;;;0.75;;
47053;SDS011;32811;52.382;5.270;2022-08-11T12:00:02;2.55;;;0.80;;
47053;SDS011;32811;52.382;5.270;2022-08-11T12:03:00;3.95;;;0.70;;
47053;SDS011;32811;52.382;5.270;2022-08-11T12:05:30;3.80;;;0.90;;
47053;SDS011;32811;52.382;5.270;2022-08-11T12:07:59;0.88;;;0.55;;
47053;SDS011;32811;52.382;5.270;2022-08-11T12:13:11;3.42;;;0.80;;
47053;SDS011;32811;52.382;5.270;2022-08-11T12:15:56;1.38;;;0.60;;
47053;SDS011;32811;52.382;5.270;2022-08-11T12:18:49;1.75;;;0.70;;
47053;SDS011;32811;52.382;5.270;2022-08-11T12:21:18;2.42;;;1.08;;
47053;SDS011;32811;52.382;5.270;2022-08-11T12:23:46;6.53;;;0.90;;
47053;SDS011;32811;52.382;5.270;2022-08-11T12:26:32;2.72;;;0.70;;
47053;SDS011;32811;52.382;5.270;2022-08-11T12:29:34;0.73;;;0.50;;
47053;SDS011;32811;52.382;5.270;2022-08-11T12:32:08;1.33;;;0.70;;
47053;SDS011;32811;52.382;5.270;2022-08-11T12:34:35;1.08;;;0.55;;
47053;SDS011;32811;52.382;5.270;2022-08-11T12:37:02;5.85;;;1.23;;
47053;SDS011;32811;52.382;5.270;2022-08-11T12:39:49;2.08;;;0.70;;
47053;SDS011;32811;52.382;5.270;2022-08-11T12:43:00;2.65;;;0.60;;
47053;SDS011;32811;52.382;5.270;2022-08-11T12:46:08;3.47;;;0.57;;
47053;SDS011;32811;52.382;5.270;2022-08-11T12:48:46;1.55;;;0.60;;
47053;SDS011;32811;52.382;5.270;2022-08-11T12:51:36;1.20;;;0.70;;
47053;SDS011;32811;52.382;5.270;2022-08-11T12:57:24;1.70;;;0.65;;
47053;SDS011;32811;52.382;5.270;2022-08-11T13:00:10;4.45;;;0.80;;
47053;SDS011;32811;52.382;5.270;2022-08-11T13:02:56;3.55;;;0.70;;
47053;SDS011;32811;52.382;5.270;2022-08-11T13:05:43;3.90;;;0.70;;
47053;SDS011;32811;52.382;5.270;2022-08-11T13:08:12;1.50;;;0.73;;
47053;SDS011;32811;52.382;5.270;2022-08-11T13:10:40;4.78;;;1.35;;
47053;SDS011;32811;52.382;5.270;2022-08-11T13:13:27;3.40;;;0.88;;
47053;SDS011;32811;52.382;5.270;2022-08-11T13:16:15;1.17;;;0.52;;
47053;SDS011;32811;52.382;5.270;2022-08-11T13:18:43;7.07;;;0.52;;
47053;SDS011;32811;52.382;5.270;2022-08-11T13:21:10;5.57;;;0.63;;
47053;SDS011;32811;52.382;5.270;2022-08-11T13:23:46;1.42;;;0.50;;
47053;SDS011;32811;52.382;5.270;2022-08-11T13:26:27;2.15;;;0.60;;
47053;SDS011;32811;52.382;5.270;2022-08-11T13:29:18;5.63;;;0.65;;
47053;SDS011;32811;52.382;5.270;2022-08-11T13:31:46;0.43;;;0.40;;
47053;SDS011;32811;52.382;5.270;2022-08-11T13:34:14;1.08;;;0.70;;
47053;SDS011;32811;52.382;5.270;2022-08-11T13:36:43;4.97;;;0.75;;
47053;SDS011;32811;52.382;5.270;2022-08-11T13:39:10;1.75;;;0.60;;
47053;SDS011;32811;52.382;5.270;2022-08-11T13:41:39;1.27;;;0.52;;
47053;SDS011;32811;52.382;5.270;2022-08-11T13:44:12;3.42;;;0.70;;
47053;SDS011;32811;52.382;5.270;2022-08-11T13:46:42;5.13;;;1.17;;
47053;SDS011;32811;52.382;5.270;2022-08-11T13:49:09;1.23;;;0.60;;
47053;SDS011;32811;52.382;5.270;2022-08-11T13:51:36;2.65;;;0.70;;
47053;SDS011;32811;52.382;5.270;2022-08-11T13:54:05;3.92;;;0.50;;
47053;SDS011;32811;52.382;5.270;2022-08-11T13:56:34;4.97;;;0.80;;
47053;SDS011;32811;52.382;5.270;2022-08-11T13:59:06;4.32;;;1.35;;
47053;SDS011;32811;52.382;5.270;2022-08-11T14:01:36;2.45;;;0.50;;
47053;SDS011;32811;52.382;5.270;2022-08-11T14:04:31;1.52;;;0.85;;
47053;SDS011;32811;52.382;5.270;2022-08-11T14:07:05;3.85;;;0.90;;
47053;SDS011;32811;52.382;5.270;2022-08-11T14:09:35;2.30;;;0.73;;
47053;SDS011;32811;52.382;5.270;2022-08-11T14:12:16;4.97;;;0.82;;
47053;SDS011;32811;52.382;5.270;2022-08-11T14:15:15;2.60;;;0.95;;
47053;SDS011;32811;52.382;5.270;2022-08-11T14:17:53;1.23;;;0.68;;
47053;SDS011;32811;52.382;5.270;2022-08-11T14:20:26;1.75;;;0.95;;
47053;SDS011;32811;52.382;5.270;2022-08-11T14:23:16;1.42;;;0.63;;
47053;SDS011;32811;52.382;5.270;2022-08-11T14:25:44;1.90;;;0.50;;
47053;SDS011;32811;52.382;5.270;2022-08-11T14:28:32;4.57;;;0.60;;
47053;SDS011;32811;52.382;5.270;2022-08-11T14:31:09;4.53;;;0.77;;
47053;SDS011;32811;52.382;5.270;2022-08-11T14:33:37;4.28;;;0.75;;
47053;SDS011;32811;52.382;5.270;2022-08-11T14:36:26;1.55;;;0.70;;
47053;SDS011;32811;52.382;5.270;2022-08-11T14:38:56;2.83;;;0.82;;
47053;SDS011;32811;52.382;5.270;2022-08-11T14:41:23;2.00;;;0.60;;
47053;SDS011;32811;52.382;5.270;2022-08-11T14:44:30;2.50;;;0.70;;
47053;SDS011;32811;52.382;5.270;2022-08-11T14:47:18;4.95;;;0.88;;
47053;SDS011;32811;52.382;5.270;2022-08-11T14:49:50;1.95;;;0.80;;
47053;SDS011;32811;52.382;5.270;2022-08-11T14:52:35;2.60;;;0.60;;
47053;SDS011;32811;52.382;5.270;2022-08-11T14:55:03;4.90;;;0.80;;
47053;SDS011;32811;52.382;5.270;2022-08-11T14:57:49;2.72;;;0.82;;
47053;SDS011;32811;52.382;5.270;2022-08-11T15:00:30;1.27;;;0.63;;
47053;SDS011;32811;52.382;5.270;2022-08-11T15:02:59;4.47;;;0.90;;
47053;SDS011;32811;52.382;5.270;2022-08-11T15:05:48;2.63;;;0.70;;
47053;SDS011;32811;52.382;5.270;2022-08-11T15:08:24;1.35;;;0.55;;
47053;SDS011;32811;52.382;5.270;2022-08-11T15:11:12;3.53;;;1.27;;
47053;SDS011;32811;52.382;5.270;2022-08-11T15:13:59;1.20;;;0.70;;
47053;SDS011;32811;52.382;5.270;2022-08-11T15:16:27;1.58;;;0.85;;
47053;SDS011;32811;52.382;5.270;2022-08-11T15:19:13;1.35;;;0.85;;
47053;SDS011;32811;52.382;5.270;2022-08-11T15:21:41;2.30;;;0.68;;
47053;SDS011;32811;52.382;5.270;2022-08-11T15:24:27;1.63;;;0.90;;
47053;SDS011;32811;52.382;5.270;2022-08-11T15:26:56;1.52;;;0.93;;
47053;SDS011;32811;52.382;5.270;2022-08-11T15:29:44;6.05;;;1.08;;
47053;SDS011;32811;52.382;5.270;2022-08-11T15:32:31;2.92;;;1.27;;
47053;SDS011;32811;52.382;5.270;2022-08-11T15:35:17;2.05;;;0.90;;
47053;SDS011;32811;52.382;5.270;2022-08-11T15:38:04;2.55;;;0.70;;
47053;SDS011;32811;52.382;5.270;2022-08-11T15:40:37;3.63;;;0.60;;
47053;SDS011;32811;52.382;5.270;2022-08-11T15:43:27;8.05;;;0.77;;
47053;SDS011;32811;52.382;5.270;2022-08-11T15:46:16;0.88;;;0.65;;
47053;SDS011;32811;52.382;5.270;2022-08-11T15:49:00;4.03;;;1.00;;
47053;SDS011;32811;52.382;5.270;2022-08-11T15:51:47;5.53;;;1.02;;
47053;SDS011;32811;52.382;5.270;2022-08-11T15:54:22;1.23;;;0.80;;
47053;SDS011;32811;52.382;5.270;2022-08-11T15:56:52;2.58;;;0.93;;
47053;SDS011;32811;52.382;5.270;2022-08-11T15:59:20;2.67;;;0.80;;
47053;SDS011;32811;52.382;5.270;2022-08-11T16:02:12;4.35;;;1.30;;
47053;SDS011;32811;52.382;5.270;2022-08-11T16:05:01;4.47;;;1.30;;
47053;SDS011;32811;52.382;5.270;2022-08-11T16:07:31;2.05;;;1.48;;
47053;SDS011;32811;52.382;5.270;2022-08-11T16:10:09;1.98;;;0.80;;
47053;SDS011;32811;52.382;5.270;2022-08-11T16:12:45;5.50;;;2.20;;
47053;SDS011;32811;52.382;5.270;2022-08-11T16:15:31;3.53;;;2.22;;
47053;SDS011;32811;52.382;5.270;2022-08-11T16:18:19;3.80;;;1.10;;
47053;SDS011;32811;52.382;5.270;2022-08-11T16:20:49;2.22;;;1.33;;
47053;SDS011;32811;52.382;5.270;2022-08-11T16:23:20;3.65;;;0.80;;
47053;SDS011;32811;52.382;5.270;2022-08-11T16:25:51;4.03;;;1.35;;
47053;SDS011;32811;52.382;5.270;2022-08-11T16:28:40;3.38;;;1.10;;
47053;SDS011;32811;52.382;5.270;2022-08-11T16:31:09;4.63;;;0.80;;
47053;SDS011;32811;52.382;5.270;2022-08-11T16:33:40;1.48;;;0.70;;
47053;SDS011;32811;52.382;5.270;2022-08-11T16:36:17;2.78;;;0.73;;
47053;SDS011;32811;52.382;5.270;2022-08-11T16:39:05;2.17;;;0.80;;
47053;SDS011;32811;52.382;5.270;2022-08-11T16:41:34;4.28;;;0.85;;
47053;SDS011;32811;52.382;5.270;2022-08-11T16:44:21;5.90;;;1.33;;
47053;SDS011;32811;52.382;5.270;2022-08-11T16:47:18;3.72;;;2.05;;
47053;SDS011;32811;52.382;5.270;2022-08-11T16:50:07;6.45;;;3.95;;
47053;SDS011;32811;52.382;5.270;2022-08-11T16:52:34;10.43;;;5.75;;
47053;SDS011;32811;52.382;5.270;2022-08-11T16:55:01;7.35;;;4.30;;
47053;SDS011;32811;52.382;5.270;2022-08-11T16:57:29;6.68;;;2.20;;
47053;SDS011;32811;52.382;5.270;2022-08-11T17:00:17;5.25;;;2.13;;
47053;SDS011;32811;52.382;5.270;2022-08-11T17:02:51;2.65;;;0.80;;
47053;SDS011;32811;52.382;5.270;2022-08-11T17:05:49;7.20;;;2.17;;
47053;SDS011;32811;52.382;5.270;2022-08-11T17:08:42;4.95;;;1.80;;
47053;SDS011;32811;52.382;5.270;2022-08-11T17:11:32;4.10;;;1.60;;
47053;SDS011;32811;52.382;5.270;2022-08-11T17:14:23;5.85;;;3.60;;
47053;SDS011;32811;52.382;5.270;2022-08-11T17:17:02;8.80;;;4.70;;
47053;SDS011;32811;52.382;5.270;2022-08-11T17:19:32;5.15;;;2.83;;
47053;SDS011;32811;52.382;5.270;2022-08-11T17:22:20;3.50;;;2.28;;
47053;SDS011;32811;52.382;5.270;2022-08-11T17:25:06;3.05;;;1.80;;
47053;SDS011;32811;52.382;5.270;2022-08-11T17:27:34;8.00;;;3.03;;
47053;SDS011;32811;52.382;5.270;2022-08-11T17:30:04;6.00;;;2.55;;
47053;SDS011;32811;52.382;5.270;2022-08-11T17:32:35;1.90;;;1.33;;
47053;SDS011;32811;52.382;5.270;2022-08-11T17:35:29;8.25;;;2.85;;
47053;SDS011;32811;52.382;5.270;2022-08-11T17:38:10;3.00;;;1.87;;
47053;SDS011;32811;52.382;5.270;2022-08-11T17:40:53;2.60;;;1.10;;
47053;SDS011;32811;52.382;5.270;2022-08-11T17:43:49;2.20;;;1.13;;
47053;SDS011;32811;52.382;5.270;2022-08-11T17:46:35;2.70;;;1.17;;
47053;SDS011;32811;52.382;5.270;2022-08-11T17:49:21;6.90;;;0.90;;
47053;SDS011;32811;52.382;5.270;2022-08-11T17:51:50;3.13;;;1.25;;
47053;SDS011;32811;52.382;5.270;2022-08-11T17:54:36;3.33;;;1.10;;
47053;SDS011;32811;52.382;5.270;2022-08-11T17:57:24;4.28;;;0.70;;
47053;SDS011;32811;52.382;5.270;2022-08-11T18:00:13;2.95;;;0.73;;
47053;SDS011;32811;52.382;5.270;2022-08-11T18:02:42;2.80;;;0.88;;
47053;SDS011;32811;52.382;5.270;2022-08-11T18:05:35;1.98;;;0.70;;
47053;SDS011;32811;52.382;5.270;2022-08-11T18:10:49;1.83;;;0.70;;
47053;SDS011;32811;52.382;5.270;2022-08-11T18:13:42;5.10;;;0.63;;
47053;SDS011;32811;52.382;5.270;2022-08-11T18:16:28;2.20;;;0.90;;
47053;SDS011;32811;52.382;5.270;2022-08-11T18:19:14;2.33;;;0.90;;
47053;SDS011;32811;52.382;5.270;2022-08-11T18:22:04;2.92;;;0.80;;
47053;SDS011;32811;52.382;5.270;2022-08-11T18:25:00;6.85;;;1.48;;
47053;SDS011;32811;52.382;5.270;2022-08-11T18:27:51;2.65;;;0.70;;
47053;SDS011;32811;52.382;5.270;2022-08-11T18:30:41;4.35;;;1.08;;
47053;SDS011;32811;52.382;5.270;2022-08-11T18:33:37;2.47;;;0.90;;
47053;SDS011;32811;52.382;5.270;2022-08-11T18:36:39;5.43;;;0.80;;
47053;SDS011;32811;52.382;5.270;2022-08-11T18:39:33;2.65;;;0.80;;
47053;SDS011;32811;52.382;5.270;2022-08-11T18:42:22;2.20;;;1.02;;
47053;SDS011;32811;52.382;5.270;2022-08-11T18:45:08;5.60;;;0.73;;
47053;SDS011;32811;52.382;5.270;2022-08-11T18:48:11;6.22;;;1.02;;
47053;SDS011;32811;52.382;5.270;2022-08-11T18:51:02;6.25;;;0.73;;
47053;SDS011;32811;52.382;5.270;2022-08-11T18:54:03;6.05;;;1.33;;
47053;SDS011;32811;52.382;5.270;2022-08-11T18:56:55;8.52;;;0.85;;
47053;SDS011;32811;52.382;5.270;2022-08-11T18:59:43;3.47;;;0.80;;
47053;SDS011;32811;52.382;5.270;2022-08-11T19:02:30;1.30;;;0.55;;
47053;SDS011;32811;52.382;5.270;2022-08-11T19:05:19;1.80;;;0.77;;
47053;SDS011;32811;52.382;5.270;2022-08-11T19:08:28;6.60;;;0.85;;
47053;SDS011;32811;52.382;5.270;2022-08-11T19:11:15;3.75;;;0.73;;
47053;SDS011;32811;52.382;5.270;2022-08-11T19:14:09;1.98;;;0.70;;
47053;SDS011;32811;52.382;5.270;2022-08-11T19:16:58;5.68;;;1.15;;
47053;SDS011;32811;52.382;5.270;2022-08-11T19:20:05;3.90;;;0.75;;
47053;SDS011;32811;52.382;5.270;2022-08-11T19:22:55;5.72;;;0.70;;
47053;SDS011;32811;52.382;5.270;2022-08-11T19:25:44;5.60;;;0.80;;
47053;SDS011;32811;52.382;5.270;2022-08-11T19:28:32;4.65;;;0.90;;
47053;SDS011;32811;52.382;5.270;2022-08-11T19:31:19;7.85;;;1.20;;
47053;SDS011;32811;52.382;5.270;2022-08-11T19:34:11;3.88;;;1.70;;
47053;SDS011;32811;52.382;5.270;2022-08-11T19:36:59;4.70;;;1.10;;
47053;SDS011;32811;52.382;5.270;2022-08-11T19:39:54;4.28;;;1.15;;
47053;SDS011;32811;52.382;5.270;2022-08-11T19:42:45;1.88;;;0.80;;
47053;SDS011;32811;52.382;5.270;2022-08-11T19:45:49;3.63;;;0.88;;
47053;SDS011;32811;52.382;5.270;2022-08-11T19:48:37;4.65;;;1.40;;